createdAt,value
2017-09-14T00:00:03.781Z,13.45
2017-09-14T00:00:44.281Z,13.45
2017-09-14T00:01:24.795Z,13.45
2017-09-14T00:02:05.313Z,13.45
2017-09-14T00:02:45.828Z,13.38
2017-09-14T00:03:26.320Z,13.46
2017-09-14T00:04:06.854Z,13.39
2017-09-14T00:04:47.372Z,13.44
2017-09-14T00:05:27.864Z,13.46
2017-09-14T00:06:08.398Z,13.39
2017-09-14T00:06:48.885Z,13.44
2017-09-14T00:07:29.410Z,13.44
2017-09-14T00:08:09.901Z,13.46
2017-09-14T00:08:50.432Z,13.39
2017-09-14T00:09:30.931Z,13.42
2017-09-14T00:10:11.428Z,13.41
2017-09-14T00:10:51.938Z,13.46
2017-09-14T00:11:32.452Z,13.42
2017-09-14T00:12:12.959Z,13.44
2017-09-14T00:12:53.440Z,13.41
2017-09-14T00:13:33.934Z,13.42
2017-09-14T00:14:14.431Z,13.41
2017-09-14T00:14:54.973Z,13.44
2017-09-14T00:15:35.448Z,13.41
2017-09-14T00:16:15.919Z,13.45
2017-09-14T00:16:56.452Z,13.42
2017-09-14T00:17:36.967Z,13.41
2017-09-14T00:18:17.516Z,13.42
2017-09-14T00:18:57.996Z,13.39
2017-09-14T00:19:38.478Z,13.39
2017-09-14T00:20:19.025Z,13.41
2017-09-14T00:20:59.489Z,13.41
2017-09-14T00:21:39.994Z,13.41
2017-09-14T00:22:20.502Z,13.38
2017-09-14T00:23:01.003Z,13.41
2017-09-14T00:23:41.514Z,13.36
2017-09-14T00:24:22.026Z,13.39
2017-09-14T00:25:02.519Z,13.49
2017-09-14T00:25:42.985Z,13.49
2017-09-14T00:26:23.469Z,13.38
2017-09-14T00:27:04.008Z,13.39
2017-09-14T00:27:44.477Z,13.42
2017-09-14T00:28:24.986Z,13.52
2017-09-14T00:29:05.515Z,13.59
2017-09-14T00:29:46.009Z,13.64
2017-09-14T00:30:26.524Z,13.55
2017-09-14T00:31:07.074Z,13.55
2017-09-14T00:31:47.588Z,13.62
2017-09-14T00:32:28.070Z,13.54
2017-09-14T00:33:08.560Z,13.57
2017-09-14T00:33:49.071Z,13.63
2017-09-14T00:34:29.606Z,13.66
2017-09-14T00:35:10.124Z,13.69
2017-09-14T00:35:50.626Z,13.69
2017-09-14T00:36:31.125Z,13.71
2017-09-14T00:37:11.665Z,13.7
2017-09-14T00:37:52.181Z,13.7
2017-09-14T00:38:32.732Z,13.75
2017-09-14T00:39:13.213Z,13.67
2017-09-14T00:39:53.734Z,13.67
2017-09-14T00:40:34.231Z,13.75
2017-09-14T00:41:14.713Z,13.66
2017-09-14T00:41:55.266Z,13.63
2017-09-14T00:42:35.762Z,13.67
2017-09-14T00:43:16.236Z,13.73
2017-09-14T00:43:56.729Z,13.7
2017-09-14T00:44:37.235Z,13.71
2017-09-14T00:45:17.772Z,13.64
2017-09-14T00:45:58.273Z,13.73
2017-09-14T00:46:38.776Z,13.64
2017-09-14T00:47:19.283Z,13.66
2017-09-14T00:47:59.821Z,13.55
2017-09-14T00:48:40.333Z,13.57
2017-09-14T00:49:20.831Z,13.57
2017-09-14T00:50:01.360Z,13.6
2017-09-14T00:50:41.850Z,13.49
2017-09-14T00:51:22.350Z,13.54
2017-09-14T00:52:02.856Z,13.51
2017-09-14T00:52:43.375Z,13.48
2017-09-14T00:53:23.911Z,13.44
2017-09-14T00:54:04.447Z,13.41
2017-09-14T00:54:44.982Z,13.42
2017-09-14T00:55:25.476Z,13.48
2017-09-14T00:56:05.994Z,13.44
2017-09-14T00:56:46.556Z,13.42
2017-09-14T00:57:27.055Z,13.41
2017-09-14T00:58:07.557Z,13.3
2017-09-14T00:58:48.104Z,13.41
2017-09-14T00:59:28.556Z,13.39
2017-09-14T01:00:09.055Z,13.3
2017-09-14T01:00:49.586Z,13.28
2017-09-14T01:01:30.051Z,13.3
2017-09-14T01:02:10.552Z,13.3
2017-09-14T01:02:51.097Z,13.28
2017-09-14T01:03:31.557Z,13.26
2017-09-14T01:04:12.062Z,13.29
2017-09-14T01:04:52.579Z,13.26
2017-09-14T01:05:33.071Z,13.28
2017-09-14T01:06:13.575Z,13.25
2017-09-14T01:06:54.081Z,13.26
2017-09-14T01:07:34.589Z,13.22
2017-09-14T01:08:15.078Z,13.26
2017-09-14T01:08:55.601Z,13.22
2017-09-14T01:09:36.108Z,13.23
2017-09-14T01:10:16.601Z,13.22
2017-09-14T01:10:57.116Z,13.22
2017-09-14T01:11:37.676Z,13.2
2017-09-14T01:12:18.200Z,13.25
2017-09-14T01:12:58.651Z,13.08
2017-09-14T01:13:39.154Z,13.23
2017-09-14T01:14:19.658Z,13.2
2017-09-14T01:15:00.167Z,13.08
2017-09-14T01:15:40.661Z,13.11
2017-09-14T01:16:21.145Z,13.1
2017-09-14T01:17:01.655Z,13.03
2017-09-14T01:17:42.183Z,13.04
2017-09-14T01:18:22.668Z,13.03
2017-09-14T01:19:03.154Z,13.08
2017-09-14T01:19:43.655Z,13.08
2017-09-14T01:20:24.184Z,13.25
2017-09-14T01:21:04.640Z,13.14
2017-09-14T01:21:45.127Z,13.14
2017-09-14T01:22:25.643Z,13.25
2017-09-14T01:23:06.152Z,13.28
2017-09-14T01:23:46.639Z,13.25
2017-09-14T01:24:27.137Z,13.28
2017-09-14T01:25:07.640Z,13.23
2017-09-14T01:25:48.147Z,13.29
2017-09-14T01:26:28.642Z,13.23
2017-09-14T01:27:09.163Z,13.25
2017-09-14T01:27:49.667Z,13.15
2017-09-14T01:28:30.169Z,13.2
2017-09-14T01:29:10.677Z,13.23
2017-09-14T01:29:51.201Z,13.19
2017-09-14T01:30:31.704Z,13.14
2017-09-14T01:31:12.208Z,13.23
2017-09-14T01:31:52.686Z,13.28
2017-09-14T01:32:33.172Z,13.28
2017-09-14T01:33:13.695Z,13.23
2017-09-14T01:33:54.218Z,13.23
2017-09-14T01:34:34.718Z,13.23
2017-09-14T01:35:15.244Z,13.2
2017-09-14T01:35:55.756Z,13.15
2017-09-14T01:36:36.267Z,13.19
2017-09-14T01:37:16.823Z,13.25
2017-09-14T01:37:57.322Z,13.17
2017-09-14T01:38:37.834Z,13.15
2017-09-14T01:39:18.313Z,13.12
2017-09-14T01:39:58.835Z,13.07
2017-09-14T01:40:39.346Z,13.11
2017-09-14T01:41:19.839Z,13.12
2017-09-14T01:42:00.394Z,13.08
2017-09-14T01:42:40.898Z,13.07
2017-09-14T01:43:21.465Z,13
2017-09-14T01:44:01.972Z,13.11
2017-09-14T01:44:42.520Z,13.04
2017-09-14T01:45:23.018Z,13.12
2017-09-14T01:46:03.521Z,13.08
2017-09-14T01:46:44.044Z,13.08
2017-09-14T01:47:24.566Z,13.1
2017-09-14T01:48:05.087Z,13.08
2017-09-14T01:48:45.587Z,13.15
2017-09-14T01:49:26.112Z,13.08
2017-09-14T01:50:06.629Z,13.1
2017-09-14T01:50:47.103Z,13.12
2017-09-14T01:51:27.618Z,13.1
2017-09-14T01:52:08.142Z,13.1
2017-09-14T01:52:48.656Z,13.1
2017-09-14T01:53:29.178Z,13.14
2017-09-14T01:54:09.720Z,13.14
2017-09-14T01:54:50.226Z,13.12
2017-09-14T01:55:30.719Z,13.15
2017-09-14T01:56:11.255Z,13.17
2017-09-14T01:56:51.760Z,13.12
2017-09-14T01:57:32.234Z,13.11
2017-09-14T01:58:12.743Z,13.17
2017-09-14T01:58:53.264Z,13.12
2017-09-14T01:59:33.750Z,13.05
2017-09-14T02:00:14.253Z,13.11
2017-09-14T02:00:54.758Z,13.12
2017-09-14T02:01:35.295Z,13.11
2017-09-14T02:02:15.809Z,13.1
2017-09-14T02:02:56.336Z,13.07
2017-09-14T02:03:36.858Z,13.07
2017-09-14T02:04:17.385Z,13.12
2017-09-14T02:04:57.892Z,13.15
2017-09-14T02:05:38.446Z,13.12
2017-09-14T02:06:18.957Z,13.08
2017-09-14T02:06:59.470Z,13.08
2017-09-14T02:07:39.988Z,13.08
2017-09-14T02:08:20.508Z,12.96
2017-09-14T02:09:01.012Z,13.11
2017-09-14T02:09:41.550Z,13.07
2017-09-14T02:10:22.092Z,13.08
2017-09-14T02:11:02.609Z,13.04
2017-09-14T02:11:43.102Z,13.03
2017-09-14T02:12:23.621Z,13.01
2017-09-14T02:13:04.160Z,13.04
2017-09-14T02:13:44.684Z,13.04
2017-09-14T02:14:25.202Z,13.04
2017-09-14T02:15:05.722Z,13.03
2017-09-14T02:15:46.227Z,13
2017-09-14T02:16:26.740Z,13
2017-09-14T02:17:07.243Z,13.04
2017-09-14T02:17:47.750Z,13.01
2017-09-14T02:18:28.289Z,13.01
2017-09-14T02:19:08.765Z,13.01
2017-09-14T02:19:49.290Z,13
2017-09-14T02:20:29.843Z,13.1
2017-09-14T02:21:10.368Z,13.05
2017-09-14T02:21:50.893Z,13.04
2017-09-14T02:22:31.392Z,13.07
2017-09-14T02:23:11.910Z,13.03
2017-09-14T02:23:52.456Z,13.08
2017-09-14T02:24:32.973Z,13.14
2017-09-14T02:25:13.493Z,13.08
2017-09-14T02:25:53.982Z,13.15
2017-09-14T02:26:34.502Z,13.15
2017-09-14T02:27:15.014Z,13.12
2017-09-14T02:27:55.536Z,13.11
2017-09-14T02:28:36.033Z,13.11
2017-09-14T02:29:16.561Z,13.07
2017-09-14T02:29:57.075Z,13.1
2017-09-14T02:30:37.621Z,13.15
2017-09-14T02:31:18.157Z,13.14
2017-09-14T02:31:58.676Z,13.12
2017-09-14T02:32:39.208Z,13.15
2017-09-14T02:33:19.721Z,13.1
2017-09-14T02:34:00.266Z,13.17
2017-09-14T02:34:40.784Z,13.19
2017-09-14T02:35:21.323Z,13.11
2017-09-14T02:36:01.833Z,13.19
2017-09-14T02:36:42.349Z,13.17
2017-09-14T02:37:22.897Z,13.19
2017-09-14T02:38:03.436Z,13.15
2017-09-14T02:38:43.980Z,13.1
2017-09-14T02:39:24.498Z,13.07
2017-09-14T02:40:05.026Z,13.1
2017-09-14T02:40:45.536Z,13.1
2017-09-14T02:41:26.037Z,13.11
2017-09-14T02:42:06.551Z,13.1
2017-09-14T02:42:47.060Z,13.11
2017-09-14T02:43:27.574Z,13.08
2017-09-14T02:44:08.088Z,12.96
2017-09-14T02:44:48.613Z,13.07
2017-09-14T02:45:29.155Z,13.01
2017-09-14T02:46:09.671Z,13.08
2017-09-14T02:46:50.215Z,13.01
2017-09-14T02:47:30.722Z,13.04
2017-09-14T02:48:11.257Z,13.07
2017-09-14T02:48:51.777Z,13.04
2017-09-14T02:49:32.327Z,12.92
2017-09-14T02:50:12.830Z,12.95
2017-09-14T02:50:53.365Z,12.96
2017-09-14T02:51:33.847Z,12.96
2017-09-14T02:52:14.368Z,12.92
2017-09-14T02:52:54.889Z,12.92
2017-09-14T02:53:35.391Z,12.93
2017-09-14T02:54:15.890Z,12.92
2017-09-14T02:54:56.380Z,12.95
2017-09-14T02:55:36.914Z,12.92
2017-09-14T02:56:17.431Z,12.95
2017-09-14T02:56:57.982Z,12.93
2017-09-14T02:57:38.470Z,12.95
2017-09-14T02:58:19.001Z,12.89
2017-09-14T02:58:59.535Z,12.89
2017-09-14T02:59:40.031Z,12.86
2017-09-14T03:00:20.558Z,12.9
2017-09-14T03:01:01.094Z,12.96
2017-09-14T03:01:41.612Z,12.82
2017-09-14T03:02:22.171Z,12.86
2017-09-14T03:03:02.718Z,12.92
2017-09-14T03:03:43.185Z,12.86
2017-09-14T03:04:23.719Z,12.86
2017-09-14T03:05:04.259Z,12.82
2017-09-14T03:05:44.733Z,12.87
2017-09-14T03:06:25.262Z,12.87
2017-09-14T03:07:05.777Z,12.85
2017-09-14T03:07:46.289Z,12.86
2017-09-14T03:08:26.825Z,12.86
2017-09-14T03:09:07.464Z,12.89
2017-09-14T03:09:48.013Z,12.86
2017-09-14T03:10:28.522Z,12.82
2017-09-14T03:11:09.063Z,12.82
2017-09-14T03:11:49.575Z,12.86
2017-09-14T03:12:30.089Z,12.83
2017-09-14T03:13:10.625Z,12.83
2017-09-14T03:13:51.138Z,12.86
2017-09-14T03:14:31.672Z,12.86
2017-09-14T03:15:12.179Z,12.86
2017-09-14T03:15:52.688Z,12.87
2017-09-14T03:16:33.229Z,12.82
2017-09-14T03:17:13.727Z,12.79
2017-09-14T03:17:54.329Z,12.79
2017-09-14T03:18:34.818Z,12.67
2017-09-14T03:19:15.329Z,12.65
2017-09-14T03:19:55.845Z,12.72
2017-09-14T03:20:36.355Z,12.68
2017-09-14T03:21:16.867Z,12.65
2017-09-14T03:21:57.376Z,12.62
2017-09-14T03:22:37.915Z,12.64
2017-09-14T03:23:18.446Z,12.59
2017-09-14T03:23:58.965Z,12.57
2017-09-14T03:24:39.488Z,12.62
2017-09-14T03:25:20.029Z,12.59
2017-09-14T03:26:00.546Z,12.56
2017-09-14T03:26:41.066Z,12.54
2017-09-14T03:27:21.576Z,12.47
2017-09-14T03:28:02.092Z,12.52
2017-09-14T03:28:42.578Z,12.54
2017-09-14T03:29:23.091Z,12.46
2017-09-14T03:30:03.604Z,12.52
2017-09-14T03:30:44.140Z,12.46
2017-09-14T03:31:24.660Z,12.45
2017-09-14T03:32:05.188Z,12.49
2017-09-14T03:32:45.737Z,12.42
2017-09-14T03:33:26.287Z,12.41
2017-09-14T03:34:06.770Z,12.41
2017-09-14T03:34:47.289Z,12.42
2017-09-14T03:35:27.821Z,12.42
2017-09-14T03:36:08.337Z,12.47
2017-09-14T03:36:48.844Z,12.42
2017-09-14T03:37:29.409Z,12.47
2017-09-14T03:38:09.927Z,12.41
2017-09-14T03:38:50.454Z,12.39
2017-09-14T03:39:30.970Z,12.46
2017-09-14T03:40:11.490Z,12.45
2017-09-14T03:40:52.024Z,12.42
2017-09-14T03:41:32.569Z,12.38
2017-09-14T03:42:13.099Z,12.42
2017-09-14T03:42:53.647Z,12.37
2017-09-14T03:43:34.146Z,12.39
2017-09-14T03:44:14.671Z,12.39
2017-09-14T03:44:55.169Z,12.37
2017-09-14T03:45:35.686Z,12.31
2017-09-14T03:46:16.202Z,12.32
2017-09-14T03:46:56.714Z,12.37
2017-09-14T03:47:37.221Z,12.34
2017-09-14T03:48:17.757Z,12.28
2017-09-14T03:48:58.260Z,12.37
2017-09-14T03:49:38.758Z,12.29
2017-09-14T03:50:19.395Z,12.41
2017-09-14T03:51:00.172Z,12.35
2017-09-14T03:51:40.644Z,12.35
2017-09-14T03:52:21.962Z,12.35
2017-09-14T03:53:02.493Z,12.37
2017-09-14T03:53:43.014Z,12.37
2017-09-14T03:54:23.532Z,12.38
2017-09-14T03:55:04.037Z,12.35
2017-09-14T03:55:44.547Z,12.29
2017-09-14T03:56:25.076Z,12.35
2017-09-14T03:57:05.604Z,12.37
2017-09-14T03:57:46.126Z,12.38
2017-09-14T03:58:26.652Z,12.39
2017-09-14T03:59:07.138Z,12.38
2017-09-14T03:59:47.666Z,12.35
2017-09-14T04:00:28.206Z,12.37
2017-09-14T04:01:08.720Z,12.35
2017-09-14T04:01:49.238Z,12.39
2017-09-14T04:02:29.777Z,12.39
2017-09-14T04:03:10.303Z,12.41
2017-09-14T04:03:50.813Z,12.35
2017-09-14T04:04:31.334Z,12.47
2017-09-14T04:05:11.860Z,12.42
2017-09-14T04:05:52.370Z,12.45
2017-09-14T04:06:32.912Z,12.41
2017-09-14T04:07:13.452Z,12.46
2017-09-14T04:07:53.975Z,12.42
2017-09-14T04:08:34.492Z,12.46
2017-09-14T04:09:15.023Z,12.46
2017-09-14T04:09:55.551Z,12.46
2017-09-14T04:10:36.088Z,12.47
2017-09-14T04:11:16.679Z,12.54
2017-09-14T04:11:57.228Z,12.47
2017-09-14T04:12:37.753Z,12.52
2017-09-14T04:13:18.266Z,12.56
2017-09-14T04:13:58.806Z,12.54
2017-09-14T04:14:39.337Z,12.49
2017-09-14T04:15:19.872Z,12.56
2017-09-14T04:16:00.407Z,12.5
2017-09-14T04:16:40.933Z,12.54
2017-09-14T04:17:21.462Z,12.53
2017-09-14T04:18:01.959Z,12.52
2017-09-14T04:18:42.462Z,12.49
2017-09-14T04:19:22.992Z,12.52
2017-09-14T04:20:03.529Z,12.54
2017-09-14T04:20:44.100Z,12.53
2017-09-14T04:21:24.594Z,12.52
2017-09-14T04:22:05.387Z,12.56
2017-09-14T04:22:45.913Z,12.54
2017-09-14T04:23:26.432Z,12.57
2017-09-14T04:24:06.981Z,12.56
2017-09-14T04:24:47.504Z,12.59
2017-09-14T04:25:28.025Z,12.62
2017-09-14T04:26:08.537Z,12.65
2017-09-14T04:26:49.060Z,12.65
2017-09-14T04:27:29.580Z,12.6
2017-09-14T04:28:10.079Z,12.65
2017-09-14T04:28:50.605Z,12.6
2017-09-14T04:29:31.171Z,12.65
2017-09-14T04:30:11.702Z,12.62
2017-09-14T04:30:52.226Z,12.62
2017-09-14T04:31:32.767Z,12.64
2017-09-14T04:32:13.280Z,12.65
2017-09-14T04:32:53.814Z,12.6
2017-09-14T04:33:34.352Z,12.64
2017-09-14T04:34:14.850Z,12.52
2017-09-14T04:34:55.398Z,12.54
2017-09-14T04:35:35.924Z,12.53
2017-09-14T04:36:16.443Z,12.53
2017-09-14T04:36:56.988Z,12.46
2017-09-14T04:37:37.502Z,12.47
2017-09-14T04:38:18.037Z,12.35
2017-09-14T04:38:58.559Z,12.35
2017-09-14T04:39:39.034Z,12.29
2017-09-14T04:40:19.545Z,12.41
2017-09-14T04:41:00.082Z,12.31
2017-09-14T04:41:40.604Z,12.34
2017-09-14T04:42:21.105Z,12.21
2017-09-14T04:43:01.611Z,12.24
2017-09-14T04:43:42.145Z,12.28
2017-09-14T04:44:22.667Z,12.27
2017-09-14T04:45:03.182Z,12.12
2017-09-14T04:45:43.702Z,12.1
2017-09-14T04:46:24.277Z,12.17
2017-09-14T04:47:04.826Z,12.16
2017-09-14T04:47:45.307Z,12.12
2017-09-14T04:48:25.911Z,12.19
2017-09-14T04:49:06.416Z,12.19
2017-09-14T04:49:46.992Z,12.14
2017-09-14T04:50:27.536Z,12.16
2017-09-14T04:51:07.994Z,12.14
2017-09-14T04:51:48.547Z,12.02
2017-09-14T04:52:29.007Z,12.14
2017-09-14T04:53:10.239Z,12.16
2017-09-14T04:53:50.761Z,11.98
2017-09-14T04:54:31.268Z,12.07
2017-09-14T04:55:11.778Z,12.04
2017-09-14T04:55:52.340Z,12.13
2017-09-14T04:56:32.855Z,12.07
2017-09-14T04:57:13.375Z,12.07
2017-09-14T04:57:53.900Z,12.1
2017-09-14T04:58:34.405Z,12.04
2017-09-14T04:59:14.988Z,12.09
2017-09-14T04:59:55.495Z,12.01
2017-09-14T05:00:36.147Z,12.13
2017-09-14T05:01:16.631Z,12.09
2017-09-14T05:01:57.169Z,12.1
2017-09-14T05:02:37.677Z,12.04
2017-09-14T05:03:18.225Z,12.02
2017-09-14T05:03:58.733Z,12.07
2017-09-14T05:04:39.251Z,12.05
2017-09-14T05:05:19.774Z,12.07
2017-09-14T05:06:00.293Z,12.01
2017-09-14T05:06:40.848Z,12.04
2017-09-14T05:07:21.377Z,12.12
2017-09-14T05:08:01.896Z,12.05
2017-09-14T05:08:42.419Z,12.07
2017-09-14T05:09:22.964Z,12.01
2017-09-14T05:10:03.479Z,12.04
2017-09-14T05:10:44.026Z,12.05
2017-09-14T05:11:24.514Z,12.07
2017-09-14T05:12:05.045Z,12.05
2017-09-14T05:12:45.563Z,12.1
2017-09-14T05:13:26.098Z,12.09
2017-09-14T05:14:06.593Z,12.09
2017-09-14T05:14:47.096Z,12.05
2017-09-14T05:15:27.611Z,12.02
2017-09-14T05:16:08.126Z,12.14
2017-09-14T05:16:48.642Z,12.02
2017-09-14T05:17:29.172Z,12.02
2017-09-14T05:18:09.672Z,12.13
2017-09-14T05:18:50.183Z,12.12
2017-09-14T05:19:30.710Z,12.07
2017-09-14T05:20:11.242Z,12.01
2017-09-14T05:20:51.746Z,12.1
2017-09-14T05:21:32.275Z,12.14
2017-09-14T05:22:12.775Z,12.17
2017-09-14T05:22:53.280Z,12.19
2017-09-14T05:23:33.789Z,12.13
2017-09-14T05:24:14.315Z,12.19
2017-09-14T05:24:54.831Z,12.14
2017-09-14T05:25:35.350Z,12.19
2017-09-14T05:26:15.872Z,12.19
2017-09-14T05:26:56.386Z,12.2
2017-09-14T05:27:36.896Z,12.13
2017-09-14T05:28:17.423Z,12.13
2017-09-14T05:28:57.920Z,12.21
2017-09-14T05:29:38.445Z,12.17
2017-09-14T05:30:18.947Z,12.19
2017-09-14T05:30:59.460Z,12.13
2017-09-14T05:31:40.037Z,12.19
2017-09-14T05:32:21.283Z,12.1
2017-09-14T05:33:01.811Z,12.1
2017-09-14T05:33:42.335Z,12.12
2017-09-14T05:34:22.841Z,12.13
2017-09-14T05:35:03.385Z,12.23
2017-09-14T05:35:43.890Z,12.2
2017-09-14T05:36:24.417Z,12.24
2017-09-14T05:37:04.930Z,12.13
2017-09-14T05:37:45.456Z,12.13
2017-09-14T05:38:25.976Z,12.16
2017-09-14T05:39:06.484Z,12.16
2017-09-14T05:39:47.014Z,12.23
2017-09-14T05:40:27.541Z,12.24
2017-09-14T05:41:08.063Z,12.17
2017-09-14T05:41:48.605Z,12.2
2017-09-14T05:42:29.095Z,12.27
2017-09-14T05:43:09.613Z,12.24
2017-09-14T05:43:50.129Z,12.24
2017-09-14T05:44:30.634Z,12.21
2017-09-14T05:45:11.175Z,12.32
2017-09-14T05:45:51.706Z,12.24
2017-09-14T05:46:32.218Z,12.24
2017-09-14T05:47:12.795Z,12.28
2017-09-14T05:47:53.299Z,12.28
2017-09-14T05:48:33.851Z,12.37
2017-09-14T05:49:14.395Z,12.34
2017-09-14T05:49:54.917Z,12.35
2017-09-14T05:50:35.446Z,12.32
2017-09-14T05:51:16.010Z,12.29
2017-09-14T05:51:56.492Z,12.31
2017-09-14T05:52:37.018Z,12.32
2017-09-14T05:53:17.552Z,12.39
2017-09-14T05:53:58.070Z,12.27
2017-09-14T05:54:38.592Z,12.28
2017-09-14T05:55:19.105Z,12.34
2017-09-14T05:55:59.622Z,12.31
2017-09-14T05:56:40.147Z,12.32
2017-09-14T05:57:20.662Z,12.35
2017-09-14T05:58:01.187Z,12.35
2017-09-14T05:58:41.720Z,12.34
2017-09-14T05:59:22.331Z,12.27
2017-09-14T06:00:02.931Z,12.32
2017-09-14T06:00:43.457Z,12.38
2017-09-14T06:01:24.112Z,12.32
2017-09-14T06:02:04.511Z,12.38
2017-09-14T06:02:45.152Z,12.38
2017-09-14T06:03:25.735Z,12.29
2017-09-14T06:04:06.335Z,12.35
2017-09-14T06:04:46.913Z,12.37
2017-09-14T06:05:27.800Z,12.35
2017-09-14T06:06:08.258Z,12.38
2017-09-14T06:06:48.768Z,12.35
2017-09-14T06:07:29.352Z,12.34
2017-09-14T06:08:09.880Z,12.34
2017-09-14T06:08:50.439Z,12.34
2017-09-14T06:09:31.076Z,12.35
2017-09-14T06:10:11.585Z,12.31
2017-09-14T06:10:52.113Z,12.31
2017-09-14T06:11:32.629Z,12.31
2017-09-14T06:12:13.144Z,12.35
2017-09-14T06:12:53.896Z,12.35
2017-09-14T06:13:34.503Z,12.32
2017-09-14T06:14:14.991Z,12.34
2017-09-14T06:14:55.516Z,12.39
2017-09-14T06:15:36.047Z,12.34
2017-09-14T06:16:16.611Z,12.31
2017-09-14T06:16:57.179Z,12.35
2017-09-14T06:17:37.883Z,12.38
2017-09-14T06:18:18.417Z,12.38
2017-09-14T06:18:58.903Z,12.35
2017-09-14T06:19:39.486Z,12.35
2017-09-14T06:20:20.059Z,12.31
2017-09-14T06:21:00.562Z,12.31
2017-09-14T06:21:41.046Z,12.31
2017-09-14T06:22:21.597Z,12.28
2017-09-14T06:23:02.137Z,12.35
2017-09-14T06:23:42.663Z,12.31
2017-09-14T06:24:23.186Z,12.31
2017-09-14T06:25:03.693Z,12.23
2017-09-14T06:25:44.239Z,12.27
2017-09-14T06:26:24.766Z,12.16
2017-09-14T06:27:05.257Z,12.12
2017-09-14T06:27:45.769Z,12.16
2017-09-14T06:28:26.302Z,12.17
2017-09-14T06:29:06.809Z,12.07
2017-09-14T06:29:47.334Z,12.05
2017-09-14T06:30:27.844Z,12.1
2017-09-14T06:31:08.377Z,12.07
2017-09-14T06:31:48.901Z,12.04
2017-09-14T06:32:29.411Z,12.04
2017-09-14T06:33:09.933Z,12.1
2017-09-14T06:33:50.466Z,12.04
2017-09-14T06:34:30.987Z,11.95
2017-09-14T06:35:11.515Z,11.99
2017-09-14T06:35:52.050Z,11.91
2017-09-14T06:36:32.544Z,11.88
2017-09-14T06:37:13.069Z,11.9
2017-09-14T06:37:53.608Z,11.99
2017-09-14T06:38:34.129Z,11.95
2017-09-14T06:39:14.637Z,11.91
2017-09-14T06:39:55.145Z,11.99
2017-09-14T06:40:35.642Z,11.94
2017-09-14T06:41:16.215Z,11.86
2017-09-14T06:41:56.741Z,11.88
2017-09-14T06:42:37.262Z,11.91
2017-09-14T06:43:17.784Z,11.83
2017-09-14T06:43:58.298Z,11.9
2017-09-14T06:44:38.806Z,11.95
2017-09-14T06:45:19.334Z,11.85
2017-09-14T06:45:59.874Z,11.86
2017-09-14T06:46:40.405Z,11.85
2017-09-14T06:47:20.917Z,11.86
2017-09-14T06:48:01.436Z,11.95
2017-09-14T06:48:41.967Z,11.88
2017-09-14T06:49:22.497Z,11.88
2017-09-14T06:50:03.035Z,11.85
2017-09-14T06:50:43.555Z,11.79
2017-09-14T06:51:24.084Z,11.83
2017-09-14T06:52:04.602Z,11.79
2017-09-14T06:52:45.135Z,11.73
2017-09-14T06:53:25.668Z,11.76
2017-09-14T06:54:06.187Z,11.75
2017-09-14T06:54:46.698Z,11.67
2017-09-14T06:55:27.210Z,11.7
2017-09-14T06:56:07.734Z,11.82
2017-09-14T06:56:48.268Z,11.73
2017-09-14T06:57:28.797Z,11.78
2017-09-14T06:58:09.317Z,11.72
2017-09-14T06:58:49.852Z,11.72
2017-09-14T06:59:30.377Z,11.76
2017-09-14T07:00:10.908Z,11.67
2017-09-14T07:00:51.440Z,11.58
2017-09-14T07:01:31.955Z,11.7
2017-09-14T07:02:12.476Z,11.67
2017-09-14T07:02:53.001Z,11.65
2017-09-14T07:03:33.540Z,11.64
2017-09-14T07:04:14.067Z,11.62
2017-09-14T07:04:54.581Z,11.67
2017-09-14T07:05:35.120Z,11.67
2017-09-14T07:06:15.665Z,11.64
2017-09-14T07:06:56.192Z,11.62
2017-09-14T07:07:36.712Z,11.67
2017-09-14T07:08:17.236Z,11.64
2017-09-14T07:08:57.795Z,11.7
2017-09-14T07:09:38.335Z,11.76
2017-09-14T07:10:18.847Z,11.75
2017-09-14T07:10:59.366Z,11.75
2017-09-14T07:11:39.904Z,11.69
2017-09-14T07:12:20.396Z,11.78
2017-09-14T07:13:00.927Z,11.64
2017-09-14T07:13:41.440Z,11.78
2017-09-14T07:14:21.971Z,11.75
2017-09-14T07:15:02.492Z,11.8
2017-09-14T07:15:43.017Z,11.8
2017-09-14T07:16:23.528Z,11.85
2017-09-14T07:17:04.062Z,11.82
2017-09-14T07:17:44.595Z,11.86
2017-09-14T07:18:25.128Z,11.82
2017-09-14T07:19:05.652Z,11.8
2017-09-14T07:19:46.186Z,11.83
2017-09-14T07:20:26.703Z,11.91
2017-09-14T07:21:07.220Z,11.83
2017-09-14T07:21:47.741Z,11.9
2017-09-14T07:22:28.272Z,11.9
2017-09-14T07:23:08.804Z,11.96
2017-09-14T07:23:49.322Z,11.83
2017-09-14T07:24:29.830Z,11.83
2017-09-14T07:25:10.342Z,11.83
2017-09-14T07:25:50.875Z,11.85
2017-09-14T07:26:31.403Z,11.91
2017-09-14T07:27:11.925Z,11.91
2017-09-14T07:27:52.449Z,11.85
2017-09-14T07:28:32.992Z,11.85
2017-09-14T07:29:13.502Z,11.88
2017-09-14T07:29:54.086Z,11.91
2017-09-14T07:30:34.592Z,11.88
2017-09-14T07:31:15.131Z,11.91
2017-09-14T07:31:55.650Z,11.88
2017-09-14T07:32:36.163Z,11.85
2017-09-14T07:33:16.677Z,11.79
2017-09-14T07:33:57.215Z,11.83
2017-09-14T07:34:37.738Z,11.86
2017-09-14T07:35:18.266Z,11.85
2017-09-14T07:35:58.806Z,11.83
2017-09-14T07:36:39.343Z,11.91
2017-09-14T07:37:19.878Z,11.91
2017-09-14T07:38:00.394Z,11.91
2017-09-14T07:38:40.918Z,11.9
2017-09-14T07:39:21.425Z,11.9
2017-09-14T07:40:01.965Z,11.91
2017-09-14T07:40:42.471Z,11.85
2017-09-14T07:41:23.021Z,11.9
2017-09-14T07:42:03.542Z,11.82
2017-09-14T07:42:44.065Z,11.91
2017-09-14T07:43:24.576Z,11.85
2017-09-14T07:44:05.119Z,11.83
2017-09-14T07:44:45.648Z,11.96
2017-09-14T07:45:26.189Z,11.9
2017-09-14T07:46:06.728Z,11.95
2017-09-14T07:46:47.263Z,11.94
2017-09-14T07:47:27.786Z,11.95
2017-09-14T07:48:08.311Z,11.94
2017-09-14T07:48:48.843Z,11.88
2017-09-14T07:49:29.364Z,11.9
2017-09-14T07:50:09.874Z,11.83
2017-09-14T07:50:50.395Z,11.85
2017-09-14T07:51:30.921Z,11.91
2017-09-14T07:52:11.449Z,11.86
2017-09-14T07:52:51.991Z,11.94
2017-09-14T07:53:32.515Z,11.91
2017-09-14T07:54:13.053Z,11.86
2017-09-14T07:54:53.570Z,11.91
2017-09-14T07:55:34.102Z,11.86
2017-09-14T07:56:14.632Z,11.9
2017-09-14T07:56:55.157Z,11.91
2017-09-14T07:57:35.674Z,11.94
2017-09-14T07:58:16.176Z,11.91
2017-09-14T07:58:56.697Z,11.91
2017-09-14T07:59:37.280Z,11.91
2017-09-14T08:00:17.809Z,11.91
2017-09-14T08:00:58.324Z,11.86
2017-09-14T08:01:38.845Z,11.94
2017-09-14T08:02:19.365Z,11.9
2017-09-14T08:02:59.921Z,11.91
2017-09-14T08:03:40.442Z,11.88
2017-09-14T08:04:20.971Z,11.86
2017-09-14T08:05:01.494Z,11.88
2017-09-14T08:05:42.035Z,11.88
2017-09-14T08:06:22.559Z,11.86
2017-09-14T08:07:03.082Z,11.91
2017-09-14T08:07:43.618Z,11.88
2017-09-14T08:08:24.135Z,11.9
2017-09-14T08:09:04.687Z,11.94
2017-09-14T08:09:45.192Z,11.91
2017-09-14T08:10:25.720Z,11.88
2017-09-14T08:11:06.242Z,11.86
2017-09-14T08:11:46.812Z,11.88
2017-09-14T08:12:27.313Z,11.91
2017-09-14T08:13:07.851Z,11.85
2017-09-14T08:13:48.370Z,11.94
2017-09-14T08:14:28.892Z,11.86
2017-09-14T08:15:09.430Z,11.91
2017-09-14T08:15:49.948Z,11.9
2017-09-14T08:16:30.464Z,12.05
2017-09-14T08:17:10.992Z,12.04
2017-09-14T08:17:51.530Z,12.04
2017-09-14T08:18:32.058Z,12.09
2017-09-14T08:19:12.581Z,12.13
2017-09-14T08:19:53.106Z,12.19
2017-09-14T08:20:33.640Z,12.17
2017-09-14T08:21:14.170Z,12.17
2017-09-14T08:21:54.697Z,12.13
2017-09-14T08:22:35.217Z,12.21
2017-09-14T08:23:15.746Z,12.13
2017-09-14T08:23:56.279Z,12.27
2017-09-14T08:24:36.795Z,12.24
2017-09-14T08:25:17.333Z,12.29
2017-09-14T08:25:57.846Z,12.24
2017-09-14T08:26:38.378Z,12.21
2017-09-14T08:27:18.916Z,12.31
2017-09-14T08:27:59.451Z,12.13
2017-09-14T08:28:39.970Z,12.19
2017-09-14T08:29:20.503Z,12.12
2017-09-14T08:30:01.044Z,12.02
2017-09-14T08:30:41.550Z,12.09
2017-09-14T08:31:22.071Z,12.01
2017-09-14T08:32:02.598Z,12.13
2017-09-14T08:32:43.128Z,12.12
2017-09-14T08:33:23.658Z,12.09
2017-09-14T08:34:04.189Z,12.04
2017-09-14T08:34:44.717Z,12.01
2017-09-14T08:35:25.250Z,12.01
2017-09-14T08:36:05.769Z,12.1
2017-09-14T08:36:46.304Z,12.04
2017-09-14T08:37:26.827Z,12.09
2017-09-14T08:38:07.364Z,12.09
2017-09-14T08:38:47.907Z,12.01
2017-09-14T08:39:28.428Z,12.04
2017-09-14T08:40:08.966Z,12.04
2017-09-14T08:40:49.482Z,11.99
2017-09-14T08:41:30.008Z,12.09
2017-09-14T08:42:10.546Z,12.04
2017-09-14T08:42:51.056Z,12.17
2017-09-14T08:43:31.558Z,12.21